Hulbert, Michigan
Current Conditions -  °F | °C
As of 2:34 AM on Sunday 23 Nov 2014 (Local Time) from KERY Reporting Station
Haze Haze  
Wind Chill: 30°   Ceiling: 200
Heat Index: 34°   Visibility: 1mi
Dew Point: 34°   Wind: 5mph
Humidity: 100%   Direction: 140°SE
Pressure: 29.74"   Gusts: NA
Location:  46.35°N, 85.15°W
Report Text: KERY 230734Z AUTO 14004KT 1SM BR OVC002 01/01 A2974 RMK AO2 T00110011
Loading
Personal Weather Stations






























Interactive Weather Map New forecast layout! Learn more

10-Day Weather Forecast

Advertisements
Track Severe Weather on mobile